Have a Safe July 4th! 

Flight Track Log - Related Links

Times and Time Zones

All times are in EDT time to prevent confusion due to time zone crossing. See the SWA3675 flight status page for this flight to view local times or setup timezone preferences in your user account.

Time Position Orientation Groundspeed Altitude Reporting Facility
EDT Latitude Longitude Course Direction KTS MPH feet Rate Location/Type
Fri 06:10:39 PM 42.7483 -73.8228 274° West 146 168 1,300  Level Boston Center
Fri 06:11:03 PM 42.7500 -73.8539 274° West 163 188 2,000 2,190 Climbing Boston Center
Fri 06:12:56 PM 42.8344 -73.9378 324° Northwest 254 292 6,300 2,913 Climbing Boston Center
Fri 06:13:56 PM 42.9044 -74.0019 326° Northwest 275 316 10,400 4,050 Climbing Boston Center
Fri 06:14:56 PM 42.9764 -74.0775 322° Northwest 291 335 14,400 3,600 Climbing Boston Center
Fri 06:15:56 PM 42.9686 -74.1822 264° West 260 299 17,600 3,050 Climbing Boston Center
Fri 06:16:56 PM 42.8778 -74.2478 208° Southwest 277 319 20,500 2,400 Climbing Boston Center
Fri 06:17:56 PM 42.7764 -74.2053 163° South 293 337 22,400 2,450 Climbing Boston Center
Fri 06:18:56 PM 42.6689 -74.1428 157° South 358 412 25,400 1,800 Climbing Boston Center
Fri 06:19:56 PM 42.5678 -74.0808 156° South 379 436 26,000 273 Climbing Boston Center
Fri 06:21:08 PM 42.4603 -74.0161 156° South 399 459 26,000  Level Boston Center
Fri 06:22:08 PM 42.3300 -73.9369 156° South 420 483 26,000  Level Boston Center
Fri 06:23:08 PM 42.2225 -73.8728 156° South 420 483 26,000  Level Boston Center
Fri 06:24:08 PM 42.1128 -73.8114 157° South 425 489 26,000  Level Boston Center
Fri 06:25:20 PM 42.0053 -73.7419 154° Southeast 425 489 26,000  Level Boston Center
Fri 06:26:20 PM 41.8747 -73.6642 156° South 430 495 26,000  Level Boston Center
Fri 06:27:20 PM 41.7608 -73.6089 160° South 430 495 26,000  Level Boston Center
Fri 06:28:20 PM 41.6419 -73.6122 181° South 418 481 26,000  Level Boston Center
Fri 06:30:10 PM 41.4464 -73.6856 196° South 421 484 26,000  Level New York Center
Fri 06:31:11 PM 41.3308 -73.7303 196° South 431 496 26,000  Level New York Center
Fri 06:32:08 PM 41.2150 -73.7747 196° South 436 502 26,000  Level New York Center
Fri 06:33:09 PM 41.1150 -73.8611 213° Southwest 434 499 26,000  Level New York Center
Fri 06:34:09 PM 41.0428 -73.9844 232° Southwest 417 480 26,000  Level New York Center
Fri 06:35:10 PM 40.9708 -74.1047 232° Southwest 423 487 26,000  Level New York Center
Fri 06:36:10 PM 40.8878 -74.2406 231° Southwest 434 499 26,000  Level New York Center
Fri 06:37:11 PM 40.8153 -74.3603 231° Southwest 434 499 26,000  Level New York Center
Fri 06:38:08 PM 40.7431 -74.4797 231° Southwest 429 494 26,000  Level New York Center
Fri 06:39:09 PM 40.6703 -74.5989 231° Southwest 429 494 26,000  Level New York Center
Fri 06:40:09 PM 40.5978 -74.7178 231° Southwest 429 494 26,000  Level New York Center
Fri 06:41:10 PM 40.5189 -74.8333 228° Southwest 429 494 26,000 -248 Level New York Center
Fri 06:42:10 PM 40.4419 -74.9433 227° Southwest 434 499 25,500 -1,200 Descending New York Center
Fri 06:43:10 PM 40.3675 -75.0478 227° Southwest 421 484 23,600 -1,835 Descending New York Center
Fri 06:44:11 PM 40.2928 -75.1519 227° Southwest 405 466 21,800 -2,132 Descending New York Center
Fri 06:45:11 PM 40.2286 -75.2458 228° Southwest 412 474 19,300 -1,916 Descending New York Center
Fri 06:46:10 PM 40.1297 -75.3778 226° Southwest 424 488 18,000 -655 Descending New York Center
Fri 06:47:10 PM 40.0592 -75.4764 227° Southwest 424 488 18,000  Level New York Center
Fri 06:48:11 PM 39.9708 -75.5978 227° Southwest 424 488 18,000 -446 Level New York Center
Fri 06:49:11 PM 39.9042 -75.6986 229° Southwest 424 488 17,100 -513 Descending New York Center
Fri 06:50:08 PM 39.8339 -75.8317 236° Southwest 419 482 17,000 -1,686 Descending New York Center
Fri 06:51:44 PM 39.7333 -76.0167 235° Southwest 392 451 12,800 -1,923 Descending Potomac TRACON
Fri 06:52:44 PM 39.6833 -76.1167 237° Southwest 343 395 12,000 -750 Descending Potomac TRACON
Fri 06:53:44 PM 39.6333 -76.2167 237° Southwest 306 352 11,300 -1,100 Descending Potomac TRACON
Fri 06:54:44 PM 39.6167 -76.3167 258° West 301 346 9,800 -1,579 Descending Potomac TRACON
Fri 06:55:38 PM 39.5833 -76.4167 247° West 298 343 8,300 -1,550 Descending Potomac TRACON
Fri 06:56:44 PM 39.5500 -76.5167 247° West 292 336 6,700 -1,190 Descending Potomac TRACON
Fri 06:57:44 PM 39.5167 -76.6167 247° West 285 328 5,800 -1,150 Descending Potomac TRACON
Fri 06:58:44 PM 39.4667 -76.7000 232° Southwest 278 320 4,400 -900 Descending Potomac TRACON
Fri 06:59:44 PM 39.4167 -76.7667 226° Southwest 275 316 4,000 -600 Descending Potomac TRACON
Fri 07:00:44 PM 39.3667 -76.8167 218° Southwest 268 308 3,200 -500 Descending Potomac TRACON
Fri 07:01:44 PM 39.3000 -76.8167 180° South 235 270 3,000 -350 Descending Potomac TRACON
Fri 07:02:44 PM 39.2333 -76.8000 169° South 207 238 2,500 -700 Descending Potomac TRACON
Fri 07:03:44 PM 39.2000 -76.7833 159° South 162 186 1,600 -789 Descending Potomac TRACON
Fri 07:04:38 PM 39.1833 -76.7333 113° Southeast 133 153 1,000 -667 Descending Potomac TRACON
Fri 07:06:00 PM 39.1667 -76.6667 270° West  Level FlightAware Approximate
Fri 07:13:00 PM 39.1754 -76.6683 270° West  Level Estimated

Login

Don't have an account? Register now (free) for customized features, flight alerts, and more!